createdAt,value
2023-02-28T00:02:25.530Z,1.52
2023-02-28T00:05:13.495Z,1.60
2023-02-28T00:07:58.810Z,1.65
2023-02-28T00:10:44.156Z,1.70
2023-02-28T00:13:29.552Z,1.20
2023-02-28T00:16:21.349Z,0.95
2023-02-28T00:19:07.130Z,1.13
2023-02-28T00:21:52.492Z,1.08
2023-02-28T00:24:38.088Z,0.98
2023-02-28T00:27:23.650Z,0.80
2023-02-28T00:30:13.178Z,0.93
2023-02-28T00:32:58.672Z,0.70
2023-02-28T00:35:47.348Z,1.02
2023-02-28T00:38:33.077Z,1.13
2023-02-28T00:41:19.817Z,0.73
2023-02-28T00:44:07.108Z,0.80
2023-02-28T00:46:52.896Z,0.95
2023-02-28T00:49:38.353Z,0.98
2023-02-28T00:52:23.561Z,1.30
2023-02-28T00:55:09.316Z,1.63
2023-02-28T00:57:54.799Z,0.80
2023-02-28T01:00:39.995Z,1.17
2023-02-28T01:03:25.407Z,1.55
2023-02-28T01:06:10.799Z,1.40
2023-02-28T01:08:57.647Z,1.98
2023-02-28T01:11:45.036Z,1.55
2023-02-28T01:14:30.254Z,1.02
2023-02-28T01:17:15.726Z,1.10
2023-02-28T01:20:01.145Z,1.23
2023-02-28T01:22:47.716Z,0.82
2023-02-28T01:25:36.207Z,1.17
2023-02-28T01:28:23.894Z,1.23
2023-02-28T01:31:10.482Z,1.02
2023-02-28T01:33:57.115Z,1.00
2023-02-28T01:36:46.882Z,0.88
2023-02-28T01:39:32.375Z,0.68
2023-02-28T01:42:17.640Z,0.55
2023-02-28T01:45:21.874Z,0.90
2023-02-28T01:48:10.196Z,0.77
2023-02-28T01:51:02.368Z,0.50
2023-02-28T01:53:57.646Z,0.60
2023-02-28T01:56:51.118Z,0.60
2023-02-28T01:59:47.356Z,0.57
2023-02-28T02:02:32.948Z,1.10
2023-02-28T02:05:32.123Z,0.70
2023-02-28T02:08:30.203Z,0.65
2023-02-28T02:11:20.050Z,0.70
2023-02-28T02:14:14.978Z,0.80
2023-02-28T02:17:19.296Z,0.60
2023-02-28T02:20:07.901Z,0.82
2023-02-28T02:23:05.596Z,0.65
2023-02-28T02:26:20.544Z,0.80
2023-02-28T02:29:43.111Z,0.60
2023-02-28T02:32:44.063Z,0.80
2023-02-28T02:35:40.951Z,0.60
2023-02-28T02:38:44.653Z,0.50
2023-02-28T02:41:40.873Z,0.57
2023-02-28T02:44:55.040Z,0.75
2023-02-28T02:47:44.749Z,0.57
2023-02-28T02:50:35.637Z,0.50
2023-02-28T02:53:28.942Z,0.80
2023-02-28T02:56:16.409Z,0.82
2023-02-28T02:59:05.872Z,0.60
2023-02-28T03:01:56.124Z,1.17
2023-02-28T03:04:55.146Z,0.70
2023-02-28T03:07:40.982Z,0.65
2023-02-28T03:10:41.210Z,1.00
2023-02-28T03:13:45.984Z,0.80
2023-02-28T03:16:55.437Z,0.80
2023-02-28T03:19:47.316Z,0.80
2023-02-28T03:22:38.957Z,0.85
2023-02-28T03:25:27.130Z,1.20
2023-02-28T03:28:34.115Z,1.35
2023-02-28T03:31:39.605Z,2.28
2023-02-28T03:34:34.208Z,2.80
2023-02-28T03:37:25.186Z,2.70
2023-02-28T03:40:18.552Z,2.30
2023-02-28T03:43:19.195Z,1.70
2023-02-28T03:46:09.691Z,1.42
2023-02-28T03:49:04.892Z,1.15
2023-02-28T03:51:52.023Z,0.90
2023-02-28T03:54:47.160Z,0.85
2023-02-28T03:57:35.580Z,0.90
2023-02-28T04:00:45.067Z,0.80
2023-02-28T04:03:30.672Z,0.88
2023-02-28T04:06:20.095Z,0.68
2023-02-28T04:09:07.797Z,0.73
2023-02-28T04:11:53.973Z,1.02
2023-02-28T04:14:39.581Z,0.80
2023-02-28T04:17:24.978Z,0.70
2023-02-28T04:20:11.018Z,0.68
2023-02-28T04:22:56.584Z,0.70
2023-02-28T04:25:41.926Z,0.50
2023-02-28T04:28:27.500Z,0.77
2023-02-28T04:31:13.112Z,0.82
2023-02-28T04:33:58.760Z,0.93
2023-02-28T04:36:44.114Z,0.50
2023-02-28T04:39:29.583Z,0.70
2023-02-28T04:42:16.252Z,0.70
2023-02-28T04:45:04.955Z,0.88
2023-02-28T04:47:50.778Z,1.45
2023-02-28T04:50:36.347Z,0.68
2023-02-28T04:53:22.829Z,0.80
2023-02-28T04:56:09.678Z,0.55
2023-02-28T04:58:55.706Z,1.05
2023-02-28T05:01:41.074Z,0.90
2023-02-28T05:04:26.581Z,0.90
2023-02-28T05:07:12.085Z,1.00
2023-02-28T05:09:57.607Z,0.80
2023-02-28T05:12:43.244Z,0.90
2023-02-28T05:15:28.780Z,0.70
2023-02-28T05:18:14.208Z,1.00
2023-02-28T05:21:03.341Z,0.98
2023-02-28T05:23:49.034Z,0.75
2023-02-28T05:26:39.424Z,0.68
2023-02-28T05:29:24.685Z,0.90
2023-02-28T05:32:14.250Z,0.50
2023-02-28T05:34:59.876Z,0.80
2023-02-28T05:37:45.478Z,0.80
2023-02-28T05:40:31.188Z,1.17
2023-02-28T05:43:16.498Z,0.70
2023-02-28T05:46:05.639Z,0.60
2023-02-28T05:48:51.626Z,0.90
2023-02-28T05:51:40.692Z,0.80
2023-02-28T05:54:26.497Z,0.90
2023-02-28T05:57:22.741Z,0.70
2023-02-28T06:00:10.840Z,1.10
2023-02-28T06:03:02.723Z,0.90
2023-02-28T06:05:48.298Z,0.70
2023-02-28T06:08:33.575Z,0.80
2023-02-28T06:11:20.952Z,0.75
2023-02-28T06:14:06.996Z,1.05
2023-02-28T06:16:53.070Z,0.90
2023-02-28T06:19:39.896Z,1.17
2023-02-28T06:22:25.628Z,0.80
2023-02-28T06:25:11.922Z,0.68
2023-02-28T06:27:57.744Z,0.80
2023-02-28T06:30:46.098Z,1.30
2023-02-28T06:33:32.186Z,1.08
2023-02-28T06:36:18.922Z,0.82
2023-02-28T06:39:04.704Z,1.10
2023-02-28T06:41:55.820Z,1.40
2023-02-28T06:44:41.601Z,0.93
2023-02-28T06:47:26.909Z,1.00
2023-02-28T06:50:13.815Z,1.02
2023-02-28T06:52:59.312Z,0.55
2023-02-28T06:55:44.963Z,0.68
2023-02-28T06:58:30.405Z,0.85
2023-02-28T07:01:16.493Z,0.80
2023-02-28T07:04:02.268Z,0.73
2023-02-28T07:06:47.477Z,0.63
2023-02-28T07:09:32.718Z,0.60
2023-02-28T07:12:18.451Z,0.90
2023-02-28T07:15:07.469Z,0.80
2023-02-28T07:17:53.097Z,0.60
2023-02-28T07:20:38.395Z,0.60
2023-02-28T07:23:24.826Z,0.80
2023-02-28T07:26:15.687Z,0.85
2023-02-28T07:29:01.242Z,0.82
2023-02-28T07:31:47.652Z,0.80
2023-02-28T07:34:33.068Z,1.00
2023-02-28T07:37:18.725Z,0.70
2023-02-28T07:40:08.319Z,0.52
2023-02-28T07:42:53.821Z,0.60
2023-02-28T07:45:39.429Z,0.93
2023-02-28T07:48:25.248Z,0.60
2023-02-28T07:51:11.441Z,0.80
2023-02-28T07:53:57.331Z,0.75
2023-02-28T07:56:43.000Z,0.88
2023-02-28T07:59:29.550Z,1.45
2023-02-28T08:02:18.908Z,0.85
2023-02-28T08:05:05.209Z,0.80
2023-02-28T08:07:50.965Z,0.93
2023-02-28T08:10:38.041Z,0.70
2023-02-28T08:13:23.430Z,0.88
2023-02-28T08:16:08.877Z,0.88
2023-02-28T08:18:54.640Z,0.70
2023-02-28T08:21:40.913Z,0.73
2023-02-28T08:24:26.540Z,0.95
2023-02-28T08:27:12.509Z,0.65
2023-02-28T08:29:57.902Z,0.75
2023-02-28T08:32:43.202Z,0.85
2023-02-28T08:35:28.647Z,0.63
2023-02-28T08:38:14.191Z,0.52
2023-02-28T08:41:07.043Z,0.65
2023-02-28T08:43:53.287Z,0.82
2023-02-28T08:46:39.409Z,0.70
2023-02-28T08:49:25.067Z,0.63
2023-02-28T08:52:10.607Z,0.50
2023-02-28T08:54:56.177Z,0.77
2023-02-28T08:57:41.565Z,0.40
2023-02-28T09:00:26.909Z,0.80
2023-02-28T09:03:12.208Z,0.57
2023-02-28T09:06:00.425Z,0.50
2023-02-28T09:08:46.706Z,0.60
2023-02-28T09:11:31.899Z,0.50
2023-02-28T09:14:18.575Z,0.50
2023-02-28T09:19:50.389Z,0.47
2023-02-28T09:22:36.454Z,0.60
2023-02-28T09:25:21.695Z,0.60
2023-02-28T09:28:07.050Z,0.40
2023-02-28T09:30:55.078Z,0.63
2023-02-28T09:33:40.544Z,0.50
2023-02-28T09:36:41.508Z,0.70
2023-02-28T09:39:29.876Z,1.00
2023-02-28T09:42:24.536Z,1.83
2023-02-28T09:45:40.241Z,0.60
2023-02-28T09:48:30.855Z,0.52
2023-02-28T09:51:35.156Z,0.50
2023-02-28T09:54:24.044Z,1.92
2023-02-28T09:57:37.396Z,0.90
2023-02-28T10:00:28.485Z,0.40
2023-02-28T10:03:46.504Z,0.50
2023-02-28T10:06:43.035Z,0.43
2023-02-28T10:09:33.930Z,0.32
2023-02-28T10:12:21.278Z,0.45
2023-02-28T10:15:07.135Z,0.32
2023-02-28T10:18:08.559Z,0.70
2023-02-28T10:20:56.974Z,0.60
2023-02-28T10:23:43.004Z,0.50
2023-02-28T10:26:31.420Z,0.65
2023-02-28T10:29:17.381Z,0.57
2023-02-28T10:32:04.953Z,0.20
2023-02-28T10:34:58.244Z,0.50
2023-02-28T10:37:48.950Z,0.50
2023-02-28T10:40:36.797Z,0.45
2023-02-28T10:43:25.704Z,0.50
2023-02-28T10:46:11.341Z,0.30
2023-02-28T10:49:13.526Z,0.28
2023-02-28T10:52:01.670Z,0.28
2023-02-28T10:54:47.392Z,0.28
2023-02-28T10:57:33.672Z,0.30
2023-02-28T11:00:26.347Z,0.20
2023-02-28T11:03:35.299Z,0.28
2023-02-28T11:06:24.558Z,0.40
2023-02-28T11:09:42.285Z,0.30
2023-02-28T11:12:34.203Z,0.30
2023-02-28T11:15:30.440Z,0.85
2023-02-28T11:18:27.961Z,0.40
2023-02-28T11:21:21.592Z,0.70
2023-02-28T11:24:29.804Z,0.38
2023-02-28T11:27:34.892Z,0.40
2023-02-28T11:30:31.522Z,0.32
2023-02-28T11:33:24.662Z,0.43
2023-02-28T11:36:15.288Z,0.30
2023-02-28T11:39:09.532Z,0.50
2023-02-28T11:42:13.701Z,0.50
2023-02-28T11:45:38.208Z,0.60
2023-02-28T11:48:48.320Z,0.77
2023-02-28T11:51:47.373Z,0.30
2023-02-28T11:54:45.003Z,0.30
2023-02-28T11:57:39.333Z,0.38
2023-02-28T12:00:43.510Z,0.50
2023-02-28T12:03:42.707Z,0.68
2023-02-28T12:06:37.115Z,0.82
2023-02-28T12:09:41.275Z,0.68
2023-02-28T12:12:57.271Z,0.43
2023-02-28T12:16:19.727Z,0.60
2023-02-28T12:19:13.707Z,0.60
2023-02-28T12:22:20.902Z,0.70
2023-02-28T12:25:28.167Z,0.68
2023-02-28T12:28:18.091Z,0.73
2023-02-28T12:31:21.178Z,0.60
2023-02-28T12:34:31.503Z,0.40
2023-02-28T12:37:39.472Z,0.73
2023-02-28T12:40:30.173Z,0.57
2023-02-28T12:43:18.504Z,1.17
2023-02-28T12:46:22.757Z,0.50
2023-02-28T12:49:24.395Z,0.43
2023-02-28T12:52:14.638Z,0.40
2023-02-28T12:55:20.992Z,0.60
2023-02-28T12:58:19.859Z,0.50
2023-02-28T13:01:20.400Z,0.65
2023-02-28T13:04:28.541Z,0.60
2023-02-28T13:07:20.128Z,0.52
2023-02-28T13:10:08.726Z,0.57
2023-02-28T13:12:56.164Z,0.60
2023-02-28T13:15:46.195Z,0.90
2023-02-28T13:18:37.383Z,0.77
2023-02-28T13:21:27.668Z,0.77
2023-02-28T13:24:35.529Z,1.75
2023-02-28T13:27:25.161Z,1.10
2023-02-28T13:30:48.043Z,0.85
2023-02-28T13:33:39.922Z,0.70
2023-02-28T13:36:31.285Z,1.00
2023-02-28T13:39:54.416Z,0.93
2023-02-28T13:42:46.169Z,1.00
2023-02-28T13:45:38.142Z,1.05
2023-02-28T13:48:28.021Z,1.10
2023-02-28T13:51:44.569Z,0.75
2023-02-28T13:54:33.040Z,0.73
2023-02-28T13:57:53.937Z,0.95
2023-02-28T14:00:57.629Z,0.80
2023-02-28T14:03:45.996Z,0.82
2023-02-28T14:06:33.990Z,0.77
2023-02-28T14:09:34.004Z,1.10
2023-02-28T14:12:53.320Z,1.17
2023-02-28T14:16:00.375Z,1.10
2023-02-28T14:19:01.428Z,0.80
2023-02-28T14:22:03.746Z,1.10
2023-02-28T14:25:12.199Z,1.13
2023-02-28T14:28:31.382Z,1.50
2023-02-28T14:31:29.906Z,1.80
2023-02-28T14:34:27.188Z,1.98
2023-02-28T14:37:40.554Z,2.13
2023-02-28T14:40:33.443Z,2.28
2023-02-28T14:43:25.097Z,1.38
2023-02-28T14:46:14.686Z,1.25
2023-02-28T14:49:00.566Z,0.95
2023-02-28T14:51:48.354Z,0.60
2023-02-28T14:54:34.386Z,1.02
2023-02-28T14:57:29.438Z,1.30
2023-02-28T15:00:22.614Z,1.40
2023-02-28T15:03:21.781Z,1.15
2023-02-28T15:06:15.020Z,1.17
2023-02-28T15:09:16.070Z,1.33
2023-02-28T15:12:01.479Z,1.88
2023-02-28T15:14:51.670Z,1.48
2023-02-28T15:17:37.724Z,1.60
2023-02-28T15:20:24.962Z,1.15
2023-02-28T15:23:12.650Z,1.10
2023-02-28T15:25:59.731Z,0.98
2023-02-28T15:28:45.702Z,0.95
2023-02-28T15:31:56.126Z,0.88
2023-02-28T15:34:45.163Z,0.90
2023-02-28T15:37:33.542Z,1.20
2023-02-28T15:40:31.945Z,1.05
2023-02-28T15:43:19.598Z,1.10
2023-02-28T15:46:10.766Z,1.13
2023-02-28T15:48:58.000Z,1.33
2023-02-28T15:51:43.332Z,1.25
2023-02-28T15:54:34.377Z,1.30
2023-02-28T15:57:27.388Z,1.17
2023-02-28T16:00:16.167Z,1.23
2023-02-28T16:03:01.666Z,1.70
2023-02-28T16:05:47.286Z,1.90
2023-02-28T16:08:32.751Z,1.55
2023-02-28T16:11:18.354Z,1.05
2023-02-28T16:14:04.234Z,1.38
2023-02-28T16:16:55.934Z,1.25
2023-02-28T16:19:41.405Z,1.58
2023-02-28T16:22:27.132Z,1.55
2023-02-28T16:25:21.363Z,2.28
2023-02-28T16:28:21.592Z,1.92
2023-02-28T16:31:08.712Z,1.70
2023-02-28T16:33:54.500Z,2.20
2023-02-28T16:36:39.983Z,1.33
2023-02-28T16:39:25.832Z,1.55
2023-02-28T16:42:26.397Z,1.52
2023-02-28T16:45:21.818Z,1.35
2023-02-28T16:48:12.223Z,1.38
2023-02-28T16:50:58.160Z,1.83
2023-02-28T16:53:45.170Z,2.17
2023-02-28T16:56:30.616Z,1.90
2023-02-28T16:59:22.466Z,1.50
2023-02-28T17:05:04.506Z,2.70
2023-02-28T17:07:50.625Z,1.92
2023-02-28T17:10:36.691Z,2.45
2023-02-28T17:13:21.929Z,1.77
2023-02-28T17:16:12.084Z,1.80
2023-02-28T17:19:03.778Z,2.08
2023-02-28T17:21:49.235Z,1.58
2023-02-28T17:24:34.945Z,1.88
2023-02-28T17:27:20.418Z,2.33
2023-02-28T17:30:29.927Z,1.67
2023-02-28T17:33:16.685Z,1.63
2023-02-28T17:36:02.831Z,1.58
2023-02-28T17:38:48.278Z,1.80
2023-02-28T17:41:33.919Z,1.80
2023-02-28T17:44:19.976Z,2.35
2023-02-28T17:47:05.700Z,2.03
2023-02-28T17:49:51.286Z,2.45
2023-02-28T17:52:37.796Z,2.22
2023-02-28T17:55:23.593Z,1.83
2023-02-28T17:58:11.995Z,2.03
2023-02-28T18:00:57.299Z,2.42
2023-02-28T18:03:42.765Z,1.90
2023-02-28T18:06:32.036Z,2.78
2023-02-28T18:09:23.134Z,3.22
2023-02-28T18:12:09.580Z,5.32
2023-02-28T18:14:55.049Z,6.43
2023-02-28T18:17:40.759Z,7.90
2023-02-28T18:20:26.574Z,2.80
2023-02-28T18:23:12.093Z,2.05
2023-02-28T18:25:58.854Z,3.55
2023-02-28T18:28:44.904Z,5.97
2023-02-28T18:31:32.485Z,11.93
2023-02-28T18:34:18.373Z,10.57
2023-02-28T18:37:04.279Z,7.70
2023-02-28T18:39:49.865Z,5.35
2023-02-28T18:42:35.737Z,6.65
2023-02-28T18:45:21.418Z,5.47
2023-02-28T18:48:06.838Z,6.80
2023-02-28T18:50:53.071Z,4.55
2023-02-28T18:53:40.371Z,3.75
2023-02-28T18:56:26.567Z,2.33
2023-02-28T18:59:12.341Z,2.85
2023-02-28T19:01:58.775Z,3.72
2023-02-28T19:04:44.086Z,1.90
2023-02-28T19:07:29.486Z,2.03
2023-02-28T19:10:15.564Z,1.80
2023-02-28T19:13:01.681Z,1.70
2023-02-28T19:15:47.964Z,2.35
2023-02-28T19:18:33.674Z,2.30
2023-02-28T19:21:22.614Z,1.42
2023-02-28T19:24:08.341Z,2.00
2023-02-28T19:26:53.579Z,2.60
2023-02-28T19:29:38.902Z,1.83
2023-02-28T19:32:24.226Z,4.20
2023-02-28T19:35:10.018Z,1.83
2023-02-28T19:37:55.343Z,2.95
2023-02-28T19:40:40.574Z,2.20
2023-02-28T19:43:26.060Z,1.90
2023-02-28T19:46:13.052Z,2.25
2023-02-28T19:48:58.515Z,1.75
2023-02-28T19:51:44.718Z,1.92
2023-02-28T19:54:30.476Z,1.55
2023-02-28T19:57:16.370Z,2.30
2023-02-28T20:00:01.886Z,2.38
2023-02-28T20:02:47.272Z,1.17
2023-02-28T20:05:32.496Z,3.30
2023-02-28T20:08:17.769Z,1.98
2023-02-28T20:11:08.572Z,2.25
2023-02-28T20:13:54.375Z,2.30
2023-02-28T20:16:41.053Z,1.30
2023-02-28T20:19:27.000Z,3.38
2023-02-28T20:22:12.633Z,1.77
2023-02-28T20:24:58.229Z,1.33
2023-02-28T20:27:43.785Z,1.60
2023-02-28T20:30:29.388Z,0.82
2023-02-28T20:33:19.079Z,3.83
2023-02-28T20:36:05.740Z,1.20
2023-02-28T20:38:52.803Z,1.48
2023-02-28T20:41:38.405Z,11.73
2023-02-28T20:44:23.881Z,19.85
2023-02-28T20:47:09.148Z,4.18
2023-02-28T20:49:54.384Z,2.22
2023-02-28T20:52:39.762Z,1.08
2023-02-28T20:55:26.109Z,0.93
2023-02-28T20:58:11.988Z,0.95
2023-02-28T21:01:05.511Z,1.00
2023-02-28T21:04:02.780Z,1.60
2023-02-28T21:06:48.412Z,0.82
2023-02-28T21:09:33.951Z,1.67
2023-02-28T21:12:19.288Z,0.98
2023-02-28T21:15:05.031Z,1.83
2023-02-28T21:17:50.723Z,0.88
2023-02-28T21:20:36.370Z,0.65
2023-02-28T21:23:21.600Z,1.10
2023-02-28T21:26:12.965Z,1.10
2023-02-28T21:29:01.844Z,0.82
2023-02-28T21:31:51.291Z,1.40
2023-02-28T21:34:36.937Z,1.10
2023-02-28T21:37:22.271Z,1.50
2023-02-28T21:40:08.537Z,1.92
2023-02-28T21:42:53.884Z,2.10
2023-02-28T21:45:39.240Z,1.60
2023-02-28T21:48:25.222Z,1.73
2023-02-28T21:51:15.999Z,2.53
2023-02-28T21:54:01.646Z,3.53
2023-02-28T21:56:46.977Z,3.67
2023-02-28T21:59:32.482Z,2.53
2023-02-28T22:02:18.292Z,2.20
2023-02-28T22:05:04.143Z,2.30
2023-02-28T22:07:49.735Z,2.42
2023-02-28T22:10:36.205Z,2.53
2023-02-28T22:13:21.507Z,2.53
2023-02-28T22:16:10.543Z,2.05
2023-02-28T22:18:55.804Z,1.92
2023-02-28T22:21:42.109Z,1.85
2023-02-28T22:24:27.560Z,2.42
2023-02-28T22:27:12.977Z,1.70
2023-02-28T22:29:58.420Z,2.20
2023-02-28T22:32:43.868Z,2.20
2023-02-28T22:35:29.831Z,2.60
2023-02-28T22:38:15.874Z,2.75
2023-02-28T22:41:02.305Z,3.13
2023-02-28T22:43:53.382Z,3.85
2023-02-28T22:46:38.982Z,3.90
2023-02-28T22:49:25.214Z,3.42
2023-02-28T22:52:10.835Z,3.45
2023-02-28T22:54:56.242Z,4.00
2023-02-28T22:57:41.700Z,4.30
2023-02-28T23:00:27.053Z,3.83
2023-02-28T23:03:12.357Z,3.72
2023-02-28T23:05:57.759Z,4.68
2023-02-28T23:08:44.032Z,3.90
2023-02-28T23:11:36.040Z,4.32
2023-02-28T23:14:21.569Z,4.25
2023-02-28T23:17:06.927Z,4.40
2023-02-28T23:19:52.304Z,3.40
2023-02-28T23:22:37.655Z,3.90
2023-02-28T23:25:23.001Z,3.30
2023-02-28T23:28:10.335Z,3.58
2023-02-28T23:30:55.603Z,4.15
2023-02-28T23:33:41.029Z,3.42
2023-02-28T23:36:26.627Z,3.60
2023-02-28T23:39:19.352Z,2.95
2023-02-28T23:42:04.675Z,2.63
2023-02-28T23:44:50.561Z,4.07
2023-02-28T23:47:36.486Z,3.58
2023-02-28T23:50:21.748Z,3.33
2023-02-28T23:53:07.886Z,3.33
2023-02-28T23:55:53.454Z,3.33
2023-02-28T23:58:38.825Z,2.88
